Time;durP1;ratioP1;P1;durP2;ratioP2;P2;SDS_P1;SDS_P2;PMS_P1;PMS_P2;Temp;Humidity;BMP_temperature;BMP_pressure;BME280_temperature;BME280_humidity;BME280_pressure;Samples;Min_cycle;Max_cycle;Signal;HPM_P1;HPM_P2
2021/10/08 00:00:40;;;;;;;;;;;;;;;17.72;71.46;102788.72;4998432;28;958;-66
2021/10/08 00:03:05;;;;;;;;;;;;;;;17.71;70.83;102786.97;4998297;28;804;-66
2021/10/08 00:05:30;;;;;;;;;;;;;;;17.69;71.26;102797.84;4998498;28;1061;-66
2021/10/08 00:07:58;;;;;;;;;;;;;;;17.69;71.36;102797.84;4998090;28;970;-65
2021/10/08 00:10:23;;;;;;;;;;;;;;;17.67;71.11;102789.00;4998148;28;892;-65
2021/10/08 00:12:48;;;;;;;;;;;;;;;17.66;70.82;102788.13;5014444;28;1828;-66
2021/10/08 00:15:13;;;;;;;;;;;;;;;17.67;71.26;102794.38;5017824;28;1902;-65
2021/10/08 00:17:38;;;;;;;;;;;;;;;17.65;71.48;102791.78;5017701;28;1018;-65
2021/10/08 00:20:03;;;;;;;;;;;;;;;17.65;71.04;102797.19;5016683;28;1880;-64
2021/10/08 00:22:28;;;;;;;;;;;;;;;17.64;71.41;102790.06;5017373;28;1894;-64
2021/10/08 00:24:53;;;;;;;;;;;;;;;17.63;71.24;102792.81;5017262;28;1006;-64
2021/10/08 00:27:19;;;;;;;;;;;;;;;17.62;71.49;102791.94;5017549;28;788;-65
2021/10/08 00:29:44;;;;;;;;;;;;;;;17.61;71.55;102792.03;5017350;28;1779;-64
2021/10/08 00:32:09;;;;;;;;;;;;;;;17.61;71.04;102786.66;5004000;28;1822;-65
2021/10/08 00:34:34;;;;;;;;;;;;;;;17.60;71.07;102788.47;4996293;28;1372;-65
2021/10/08 00:36:59;;;;;;;;;;;;;;;17.59;70.86;102792.13;4997476;28;2310;-65
2021/10/08 00:39:26;;;;;;;;;;;;;;;17.58;71.00;102787.69;4997601;28;878;-64
2021/10/08 00:41:51;;;;;;;;;;;;;;;17.58;71.02;102789.53;4997778;28;876;-64
2021/10/08 00:44:16;;;;;;;;;;;;;;;17.57;70.88;102793.19;4997442;28;974;-63
2021/10/08 00:46:42;;;;;;;;;;;;;;;17.56;71.09;102799.53;4997477;28;1057;-63
2021/10/08 00:49:07;;;;;;;;;;;;;;;17.56;70.90;102797.72;4997505;28;922;-63
2021/10/08 00:51:32;;;;;;;;;;;;;;;17.54;71.45;102796.97;4997614;28;824;-63
2021/10/08 00:53:57;;;;;;;;;;;;;;;17.54;70.87;102802.38;5006791;28;1884;-63
2021/10/08 00:56:22;;;;;;;;;;;;;;;17.53;71.35;102797.94;5016622;28;1890;-63
2021/10/08 00:58:47;;;;;;;;;;;;;;;17.51;71.48;102797.16;5016658;28;927;-64
2021/10/08 01:01:12;;;;;;;;;;;;;;;17.51;71.39;102794.47;5016821;28;931;-66
2021/10/08 01:03:37;;;;;;;;;;;;;;;17.51;71.11;102793.59;5016602;28;1204;-62
2021/10/08 01:06:02;;;;;;;;;;;;;;;17.50;70.84;102800.81;5017220;28;835;-62
2021/10/08 01:08:27;;;;;;;;;;;;;;;17.49;71.22;102799.06;5016743;28;1014;-63
2021/10/08 01:10:53;;;;;;;;;;;;;;;17.48;71.58;102805.44;5016481;28;1645;-62
2021/10/08 01:13:18;;;;;;;;;;;;;;;17.46;71.14;102801.09;5017044;28;926;-63
2021/10/08 01:15:44;;;;;;;;;;;;;;;17.45;71.15;102802.06;5016489;28;1971;-63
2021/10/08 01:18:09;;;;;;;;;;;;;;;17.45;71.30;102802.06;5009896;28;1804;-62
2021/10/08 01:20:34;;;;;;;;;;;;;;;17.45;71.22;102802.91;4996810;28;854;-62
2021/10/08 01:22:59;;;;;;;;;;;;;;;17.44;71.21;102803.88;4996945;28;1057;-63
2021/10/08 01:25:25;;;;;;;;;;;;;;;17.42;71.25;102797.72;4996921;28;823;-62
2021/10/08 01:27:50;;;;;;;;;;;;;;;17.41;71.70;102798.69;4995672;28;922;-62
2021/10/08 01:30:16;;;;;;;;;;;;;;;17.41;71.33;102792.41;4996545;28;1720;-62
2021/10/08 01:32:41;;;;;;;;;;;;;;;17.40;70.84;102802.34;4996769;28;1069;-62
2021/10/08 01:35:06;;;;;;;;;;;;;;;17.40;71.23;102796.06;4997927;28;1894;-63
2021/10/08 01:37:31;;;;;;;;;;;;;;;17.40;70.92;102801.47;5004924;28;1877;-64
2021/10/08 01:39:56;;;;;;;;;;;;;;;17.38;71.17;102806.13;5016007;28;930;-64
2021/10/08 01:42:21;;;;;;;;;;;;;;;17.37;71.59;102810.63;5016370;28;1018;-64
2021/10/08 01:44:46;;;;;;;;;;;;;;;17.36;70.80;102808.91;5016103;28;1026;-65
2021/10/08 01:47:11;;;;;;;;;;;;;;;17.35;71.39;102810.72;5016050;28;899;-65
2021/10/08 01:49:36;;;;;;;;;;;;;;;17.34;71.11;102802.75;5016032;28;828;-65
2021/10/08 01:52:01;;;;;;;;;;;;;;;17.33;71.23;102806.41;5016359;28;784;-65
2021/10/08 01:54:26;;;;;;;;;;;;;;;17.32;71.77;102805.53;5016139;28;1014;-65
2021/10/08 01:56:51;;;;;;;;;;;;;;;17.31;71.59;102802.94;5015413;28;1964;-65
2021/10/08 01:59:16;;;;;;;;;;;;;;;17.31;70.94;102803.78;4995088;28;2042;-64
2021/10/08 02:01:42;;;;;;;;;;;;;;;17.30;71.00;102802.06;4996046;28;1081;-64
2021/10/08 02:04:07;;;;;;;;;;;;;;;17.30;71.29;102809.28;4996027;28;844;-64
2021/10/08 02:06:32;;;;;;;;;;;;;;;17.29;71.47;102799.44;4996221;28;1762;-63
2021/10/08 02:08:57;;;;;;;;;;;;;;;17.28;71.60;102808.50;4995853;28;1080;-63
2021/10/08 02:11:22;;;;;;;;;;;;;;;17.27;71.08;102801.38;4994511;28;1659;-63
2021/10/08 02:13:47;;;;;;;;;;;;;;;17.26;71.49;102805.03;4995945;28;938;-63
2021/10/08 02:16:12;;;;;;;;;;;;;;;17.26;71.21;102802.34;4996008;28;1914;-63
2021/10/08 02:18:37;;;;;;;;;;;;;;;17.25;71.70;102803.28;4996073;28;1920;-63
2021/10/08 02:21:03;;;;;;;;;;;;;;;17.24;71.01;102804.25;4995917;28;1042;-63
2021/10/08 02:23:28;;;;;;;;;;;;;;;17.23;71.57;102798.00;4995945;28;926;-63
2021/10/08 02:25:53;;;;;;;;;;;;;;;17.22;71.29;102798.09;4994425;28;974;-63
2021/10/08 02:28:19;;;;;;;;;;;;;;;17.22;71.18;102800.78;4995818;28;990;-63
2021/10/08 02:30:44;;;;;;;;;;;;;;;17.21;71.00;102801.75;4995433;28;1180;-63
2021/10/08 02:33:09;;;;;;;;;;;;;;;17.20;71.36;102802.69;4995790;28;1073;-64
2021/10/08 02:35:34;;;;;;;;;;;;;;;17.19;71.98;102798.31;4995747;28;1977;-63
2021/10/08 02:37:59;;;;;;;;;;;;;;;17.18;71.33;102791.19;5004606;28;1921;-63
2021/10/08 02:40:24;;;;;;;;;;;;;;;17.17;71.60;102794.84;5002034;28;1869;-63
2021/10/08 02:42:49;;;;;;;;;;;;;;;17.17;71.27;102792.13;4995139;28;879;-63
2021/10/08 02:45:15;;;;;;;;;;;;;;;17.16;71.68;102793.97;4995391;28;947;-63
2021/10/08 02:47:40;;;;;;;;;;;;;;;17.15;71.56;102796.75;4995612;28;898;-65
2021/10/08 02:50:05;;;;;;;;;;;;;;;17.15;71.73;102794.06;4995370;28;792;-64
2021/10/08 02:52:30;;;;;;;;;;;;;;;17.14;71.25;102795.03;4995364;28;898;-64
2021/10/08 02:54:55;;;;;;;;;;;;;;;17.13;71.58;102794.16;4995440;28;1957;-64
2021/10/08 02:57:20;;;;;;;;;;;;;;;17.13;71.55;102790.59;5001535;28;1751;-64
2021/10/08 02:59:45;;;;;;;;;;;;;;;17.12;71.30;102791.56;5014805;28;1021;-64
2021/10/08 03:02:10;;;;;;;;;;;;;;;17.10;72.21;102797.03;5014935;28;831;-64
2021/10/08 03:04:36;;;;;;;;;;;;;;;17.10;71.84;102799.72;5014717;28;1049;-64
2021/10/08 03:07:01;;;;;;;;;;;;;;;17.10;71.47;102804.25;4997735;28;1983;-64
2021/10/08 03:09:26;;;;;;;;;;;;;;;17.09;71.78;102803.38;4995434;28;804;-64
2021/10/08 03:11:51;;;;;;;;;;;;;;;17.09;71.46;102813.28;4995515;28;1217;-64
2021/10/08 03:14:16;;;;;;;;;;;;;;;17.08;71.51;102814.25;4995273;28;931;-64
2021/10/08 03:16:41;;;;;;;;;;;;;;;17.07;71.48;102816.06;4998133;28;2029;-64
2021/10/08 03:19:06;;;;;;;;;;;;;;;17.06;71.76;102814.34;5014766;28;1104;-64
2021/10/08 03:21:31;;;;;;;;;;;;;;;17.05;71.63;102820.69;5014827;28;909;-64
2021/10/08 03:23:56;;;;;;;;;;;;;;;17.05;71.61;102820.69;5013416;28;1735;-64
2021/10/08 03:26:21;;;;;;;;;;;;;;;17.04;71.51;102821.63;5014707;28;950;-64
2021/10/08 03:28:46;;;;;;;;;;;;;;;17.04;70.98;102818.06;5014929;28;911;-64
2021/10/08 03:31:12;;;;;;;;;;;;;;;17.02;71.45;102817.34;5014950;28;875;-63
2021/10/08 03:33:37;;;;;;;;;;;;;;;17.02;71.88;102817.34;5014553;28;866;-63
2021/10/08 03:36:02;;;;;;;;;;;;;;;17.00;71.73;102812.91;5014424;28;1949;-63
2021/10/08 03:38:31;;;;;;;;;;;;;;;17.00;71.48;102809.34;4995201;28;1800;-64
2021/10/08 03:41:06;;;;;;;;;;;;;;;16.99;71.29;102811.16;4995675;28;1883;-65
2021/10/08 03:43:32;;;;;;;;;;;;;;;16.99;71.63;102816.56;4995332;28;824;-65
2021/10/08 03:46:01;;;;;;;;;;;;;;;16.99;71.76;102815.69;4994857;28;894;-65
2021/10/08 03:50:57;;;;;;;;;;;;;;;16.95;71.41;102812.31;4995155;28;890;-64
2021/10/08 03:53:22;;;;;;;;;;;;;;;16.96;71.64;102823.94;4994880;28;824;-63
2021/10/08 03:55:47;;;;;;;;;;;;;;;16.94;71.61;102807.88;4997177;28;2062;-63
2021/10/08 03:58:12;;;;;;;;;;;;;;;16.94;71.56;102815.97;5018027;28;1092;-63
2021/10/08 04:00:37;;;;;;;;;;;;;;;16.94;71.62;102820.47;5017955;28;847;-64
2021/10/08 04:03:02;;;;;;;;;;;;;;;16.93;71.56;102816.03;5017920;28;1065;-63
2021/10/08 04:05:27;;;;;;;;;;;;;;;16.93;71.37;102813.34;5018122;28;1030;-63
2021/10/08 04:07:52;;;;;;;;;;;;;;;16.92;71.46;102814.31;5017842;28;922;-63
2021/10/08 04:10:17;;;;;;;;;;;;;;;16.91;71.86;102813.44;5017882;28;1073;-63
2021/10/08 04:12:42;;;;;;;;;;;;;;;16.91;71.49;102820.66;5017407;28;1229;-63
2021/10/08 04:15:07;;;;;;;;;;;;;;;16.90;71.61;102817.09;5018098;28;1961;-63
2021/10/08 04:17:32;;;;;;;;;;;;;;;16.90;71.00;102814.41;5017924;28;1617;-63
2021/10/08 04:19:58;;;;;;;;;;;;;;;16.90;72.01;102818.91;5001688;28;2025;-63
2021/10/08 04:22:23;;;;;;;;;;;;;;;16.90;71.32;102816.22;4998105;28;963;-63
2021/10/08 04:24:48;;;;;;;;;;;;;;;16.88;71.14;102819.00;4997775;28;863;-65
2021/10/08 04:27:13;;;;;;;;;;;;;;;16.85;71.68;102819.19;4998094;28;907;-63
2021/10/08 04:29:38;;;;;;;;;;;;;;;16.86;71.39;102815.53;4997780;28;860;-65
2021/10/08 04:32:03;;;;;;;;;;;;;;;16.85;71.25;102819.19;4997702;28;847;-68
2021/10/08 04:34:28;;;;;;;;;;;;;;;16.85;71.48;102821.88;4997528;28;915;-68
2021/10/08 04:36:53;;;;;;;;;;;;;;;16.84;71.50;102814.75;5006191;28;1942;-63
2021/10/08 04:39:18;;;;;;;;;;;;;;;16.83;71.56;102813.06;5016488;28;1471;-64
2021/10/08 04:41:44;;;;;;;;;;;;;;;16.83;71.44;102829.22;5016653;28;1628;-67
2021/10/08 04:44:09;;;;;;;;;;;;;;;16.83;71.39;102831.91;5016451;28;1582;-65
2021/10/08 04:46:34;;;;;;;;;;;;;;;16.83;71.29;102823.81;5015395;28;1709;-67
2021/10/08 04:48:59;;;;;;;;;;;;;;;16.83;71.53;102815.75;5016674;28;1494;-65
2021/10/08 04:51:24;;;;;;;;;;;;;;;16.84;71.24;102819.31;5016767;28;1625;-67
2021/10/08 04:53:49;;;;;;;;;;;;;;;16.84;71.38;102819.31;5016604;28;1355;-66
2021/10/08 04:56:14;;;;;;;;;;;;;;;16.84;71.79;102822.84;5016246;28;1902;-65
2021/10/08 04:58:39;;;;;;;;;;;;;;;16.82;71.44;102827.47;5021322;28;1644;-68
2021/10/08 05:01:04;;;;;;;;;;;;;;;16.81;71.42;102824.88;5017866;28;1558;-68
2021/10/08 05:03:30;;;;;;;;;;;;;;;16.80;71.87;102834.78;5016506;28;1309;-64
2021/10/08 05:05:55;;;;;;;;;;;;;;;16.81;71.71;102824.88;5016647;28;1865;-64
2021/10/08 05:08:20;;;;;;;;;;;;;;;16.86;72.90;102820.91;5015113;28;1577;-63
2021/10/08 05:10:45;;;;;;;;;;;;;;;16.93;74.90;102824.13;5016281;28;1734;-63
2021/10/08 05:13:10;;;;;;;;;;;;;;;16.94;75.18;102821.34;5016213;28;1471;-64
2021/10/08 05:15:35;;;;;;;;;;;;;;;16.95;74.08;102827.59;5020637;28;1906;-64
2021/10/08 05:18:00;;;;;;;;;;;;;;;16.94;73.94;102826.72;5022587;28;1641;-65
2021/10/08 05:20:25;;;;;;;;;;;;;;;16.93;73.70;102819.59;5016218;28;1660;-65
2021/10/08 05:22:50;;;;;;;;;;;;;;;16.92;74.07;102828.63;5016370;28;1555;-65
2021/10/08 05:25:15;;;;;;;;;;;;;;;16.90;73.70;102825.16;5016805;28;1619;-65
2021/10/08 05:27:40;;;;;;;;;;;;;;;16.88;73.86;102829.78;5014337;28;1615;-65
2021/10/08 05:30:06;;;;;;;;;;;;;;;16.88;73.05;102832.47;5015947;28;1727;-65
2021/10/08 05:32:31;;;;;;;;;;;;;;;16.86;73.25;102837.06;5016273;28;1719;-65
2021/10/08 05:34:56;;;;;;;;;;;;;;;16.85;73.05;102842.56;5014408;28;1965;-65
2021/10/08 05:37:21;;;;;;;;;;;;;;;16.84;73.08;102843.53;5015447;28;1427;-65
2021/10/08 05:39:46;;;;;;;;;;;;;;;16.84;73.18;102844.38;5015616;28;1648;-65
2021/10/08 05:42:11;;;;;;;;;;;;;;;16.83;72.98;102839.97;5015359;28;1728;-65
2021/10/08 05:44:36;;;;;;;;;;;;;;;16.83;72.52;102839.97;5016818;28;1689;-65
2021/10/08 05:47:01;;;;;;;;;;;;;;;16.82;72.77;102842.75;5014925;28;1633;-63
2021/10/08 05:49:26;;;;;;;;;;;;;;;16.82;72.84;102854.41;5012179;28;1860;-63
2021/10/08 05:51:52;;;;;;;;;;;;;;;16.82;72.84;102842.75;5013551;28;1722;-64
2021/10/08 05:54:17;;;;;;;;;;;;;;;16.82;72.72;102845.47;5015744;28;1636;-63
2021/10/08 05:56:42;;;;;;;;;;;;;;;16.81;73.13;102851.81;5015821;28;1890;-63
2021/10/08 05:59:07;;;;;;;;;;;;;;;16.80;72.98;102855.44;5015780;28;1026;-63
2021/10/08 06:01:32;;;;;;;;;;;;;;;16.79;72.89;102859.09;5015709;28;891;-64
2021/10/08 06:03:58;;;;;;;;;;;;;;;16.77;72.87;102861.88;5016047;28;1062;-63
2021/10/08 06:06:23;;;;;;;;;;;;;;;16.76;72.88;102862.84;5015333;28;1565;-63
2021/10/08 06:08:48;;;;;;;;;;;;;;;16.75;72.76;102868.31;5015501;28;1502;-63
2021/10/08 06:11:14;;;;;;;;;;;;;;;16.73;72.87;102856.75;5014850;28;1624;-63
2021/10/08 06:13:39;;;;;;;;;;;;;;;16.72;73.05;102863.97;5015746;28;1632;-63
2021/10/08 06:16:04;;;;;;;;;;;;;;;16.71;72.56;102859.53;5015669;28;1910;-63
2021/10/08 06:18:29;;;;;;;;;;;;;;;16.69;72.78;102864.13;5014982;28;958;-63
2021/10/08 06:20:54;;;;;;;;;;;;;;;16.70;72.84;102867.69;5015640;28;838;-63
2021/10/08 06:23:21;;;;;;;;;;;;;;;16.69;72.94;102877.59;5015131;28;1041;-63
2021/10/08 06:25:46;;;;;;;;;;;;;;;16.68;72.30;102870.47;5015798;28;845;-63
2021/10/08 06:28:11;;;;;;;;;;;;;;;16.67;72.38;102871.44;5013600;28;1893;-63
2021/10/08 06:30:36;;;;;;;;;;;;;;;16.66;72.67;102870.56;5015240;28;919;-63
2021/10/08 06:33:01;;;;;;;;;;;;;;;16.65;72.39;102879.63;5015660;28;913;-63
2021/10/08 06:35:27;;;;;;;;;;;;;;;16.65;72.29;102876.06;5015262;28;1894;-63
2021/10/08 06:37:53;;;;;;;;;;;;;;;16.64;72.23;102874.31;5012729;28;2007;-63
2021/10/08 06:40:18;;;;;;;;;;;;;;;16.63;72.31;102881.53;5014957;28;1001;-63
2021/10/08 06:42:43;;;;;;;;;;;;;;;16.62;72.37;102884.28;5015471;28;1025;-63
2021/10/08 06:45:08;;;;;;;;;;;;;;;16.63;72.28;102891.44;5015224;28;891;-63
2021/10/08 06:47:33;;;;;;;;;;;;;;;16.61;72.27;102893.31;5015522;28;1758;-63
2021/10/08 06:49:58;;;;;;;;;;;;;;;16.61;72.55;102893.31;4998080;28;1891;-63
2021/10/08 06:52:23;;;;;;;;;;;;;;;16.60;72.30;102892.44;5014863;28;931;-63
2021/10/08 06:54:48;;;;;;;;;;;;;;;16.59;72.37;102892.53;5015262;28;811;-63
2021/10/08 06:57:13;;;;;;;;;;;;;;;16.59;71.94;102895.22;5014899;28;1910;-63
2021/10/08 06:59:38;;;;;;;;;;;;;;;16.58;72.30;102890.78;5015197;28;970;-63
2021/10/08 07:02:04;;;;;;;;;;;;;;;16.57;72.04;102892.63;5015127;28;871;-63
2021/10/08 07:04:29;;;;;;;;;;;;;;;16.57;71.98;102899.81;5014919;28;815;-63
2021/10/08 07:06:54;;;;;;;;;;;;;;;16.57;72.24;102897.13;5014787;28;784;-63
2021/10/08 07:09:19;;;;;;;;;;;;;;;16.56;72.11;102895.38;4999961;28;2002;-63
2021/10/08 07:11:44;;;;;;;;;;;;;;;16.55;72.22;102905.28;4995361;28;1233;-63
2021/10/08 07:14:09;;;;;;;;;;;;;;;16.53;72.13;102899.13;4995223;28;1190;-64
2021/10/08 07:16:34;;;;;;;;;;;;;;;16.54;71.99;102897.28;4994002;28;2042;-63
2021/10/08 07:19:07;;;;;;;;;;;;;;;16.53;71.73;102898.25;4995333;28;931;-63
2021/10/08 07:21:33;;;;;;;;;;;;;;;16.52;71.97;102900.06;4995757;28;824;-63
2021/10/08 07:23:58;;;;;;;;;;;;;;;16.52;71.73;102904.59;4995143;28;913;-63
2021/10/08 07:26:23;;;;;;;;;;;;;;;16.52;72.17;102907.28;4995209;28;1006;-63
2021/10/08 07:28:48;;;;;;;;;;;;;;;16.51;71.83;102908.22;5008758;28;1952;-63
2021/10/08 07:31:13;;;;;;;;;;;;;;;16.50;72.10;102910.06;5018360;28;1584;-63
2021/10/08 07:33:38;;;;;;;;;;;;;;;16.49;71.89;102904.75;5018766;28;883;-63
2021/10/08 07:36:03;;;;;;;;;;;;;;;16.48;72.12;102908.44;5018317;28;2331;-63
2021/10/08 07:38:28;;;;;;;;;;;;;;;16.48;71.77;102905.75;5017177;28;1358;-63
2021/10/08 07:40:53;;;;;;;;;;;;;;;16.49;71.92;102915.53;5018342;28;859;-63
2021/10/08 07:43:19;;;;;;;;;;;;;;;16.48;72.07;102908.44;5018668;28;1072;-64
2021/10/08 07:45:44;;;;;;;;;;;;;;;16.47;71.93;102917.47;5018305;28;942;-63
2021/10/08 07:48:09;;;;;;;;;;;;;;;16.47;72.19;102912.94;5009022;28;1924;-63
2021/10/08 07:50:34;;;;;;;;;;;;;;;16.45;71.77;102919.38;4998605;28;1022;-63
2021/10/08 07:52:59;;;;;;;;;;;;;;;16.44;71.95;102901.50;4998430;28;926;-63
2021/10/08 07:55:24;;;;;;;;;;;;;;;16.44;71.81;102909.56;4999274;28;1898;-63
2021/10/08 07:57:49;;;;;;;;;;;;;;;16.43;71.80;102916.75;5013016;28;1864;-63
2021/10/08 08:00:14;;;;;;;;;;;;;;;16.43;71.96;102910.50;4998459;28;1072;-64
2021/10/08 08:02:39;;;;;;;;;;;;;;;16.44;71.51;102920.31;4998314;28;848;-63
2021/10/08 08:05:04;;;;;;;;;;;;;;;16.43;71.85;102921.28;4998255;28;1049;-63
2021/10/08 08:07:29;;;;;;;;;;;;;;;16.42;71.88;102919.53;5004468;28;1911;-63
2021/10/08 08:09:54;;;;;;;;;;;;;;;16.41;71.75;102924.06;5017870;28;855;-63
2021/10/08 08:12:20;;;;;;;;;;;;;;;16.42;71.57;102927.59;5018128;28;1352;-63
2021/10/08 08:14:45;;;;;;;;;;;;;;;16.41;71.56;102932.13;5016301;28;1578;-63
2021/10/08 08:17:10;;;;;;;;;;;;;;;16.40;71.63;102927.69;5000878;28;1906;-63
2021/10/08 08:19:35;;;;;;;;;;;;;;;16.41;71.86;102933.94;4998309;28;1018;-63
2021/10/08 08:22:00;;;;;;;;;;;;;;;16.40;71.58;102932.22;4998236;28;931;-63
2021/10/08 08:24:25;;;;;;;;;;;;;;;16.40;71.27;102934.91;5003048;28;1999;-63
2021/10/08 08:26:50;;;;;;;;;;;;;;;16.38;71.63;102940.38;5017850;28;1609;-63
2021/10/08 08:29:15;;;;;;;;;;;;;;;16.39;71.63;102930.47;5017513;28;1181;-63
2021/10/08 08:31:41;;;;;;;;;;;;;;;16.38;71.87;102929.59;5017827;28;931;-64
2021/10/08 08:34:06;;;;;;;;;;;;;;;16.39;71.60;102930.47;5017487;28;897;-63
2021/10/08 08:36:31;;;;;;;;;;;;;;;16.37;71.75;102927.00;5017224;28;1956;-64
2021/10/08 08:38:59;;;;;;;;;;;;;;;16.38;71.57;102931.41;5017153;28;1064;-64
2021/10/08 08:41:24;;;;;;;;;;;;;;;16.37;71.57;102930.56;5016953;28;843;-63
2021/10/08 08:43:49;;;;;;;;;;;;;;;16.37;71.62;102932.38;5014633;28;1982;-64
2021/10/08 08:46:14;;;;;;;;;;;;;;;16.37;71.83;102927.00;4997741;28;1006;-63
2021/10/08 08:48:41;;;;;;;;;;;;;;;16.36;71.77;102917.19;4997821;28;934;-63
2021/10/08 08:51:06;;;;;;;;;;;;;;;16.37;71.75;102927.00;4997586;28;854;-63
2021/10/08 08:53:31;;;;;;;;;;;;;;;16.35;71.63;102931.59;5010124;28;1649;-63
2021/10/08 08:55:56;;;;;;;;;;;;;;;16.34;71.59;102925.34;5016980;28;1960;-63
2021/10/08 08:58:21;;;;;;;;;;;;;;;16.36;71.40;102919.88;5016855;28;792;-63
2021/10/08 09:00:46;;;;;;;;;;;;;;;16.34;71.55;102928.03;5016757;28;808;-63
2021/10/08 09:03:13;;;;;;;;;;;;;;;16.35;71.68;102923.50;5016912;28;847;-63
2021/10/08 09:05:38;;;;;;;;;;;;;;;16.36;71.44;102930.63;4997623;28;1990;-63
2021/10/08 09:08:04;;;;;;;;;;;;;;;16.36;71.36;102930.63;4997102;28;918;-64
2021/10/08 09:10:29;;;;;;;;;;;;;;;16.36;71.58;102922.56;4997359;28;877;-63
2021/10/08 09:12:56;;;;;;;;;;;;;;;16.35;71.35;102926.22;4997079;28;1142;-63
2021/10/08 09:15:21;;;;;;;;;;;;;;;16.35;71.53;102918.13;4995734;28;1907;-63
2021/10/08 09:17:46;;;;;;;;;;;;;;;16.35;71.38;102928.91;4997081;28;1725;-63
2021/10/08 09:20:11;;;;;;;;;;;;;;;16.35;71.60;102923.50;4996993;28;914;-63
2021/10/08 09:22:36;;;;;;;;;;;;;;;16.34;71.47;102925.34;4997022;28;899;-63
2021/10/08 09:25:01;;;;;;;;;;;;;;;16.36;71.25;102925.25;5012760;28;2011;-63
2021/10/08 09:27:26;;;;;;;;;;;;;;;16.36;71.31;102926.13;5016433;28;1022;-63
2021/10/08 09:29:51;;;;;;;;;;;;;;;16.36;71.02;102925.25;5016605;28;1025;-64
2021/10/08 09:32:17;;;;;;;;;;;;;;;16.35;71.30;102923.50;5016474;28;1523;-64
2021/10/08 09:34:42;;;;;;;;;;;;;;;16.36;71.36;102919.88;5016345;28;954;-63
2021/10/08 09:37:09;;;;;;;;;;;;;;;16.36;71.20;102925.25;5016679;28;1879;-64
2021/10/08 09:39:36;;;;;;;;;;;;;;;16.37;71.55;102918.91;5016280;28;824;-63
2021/10/08 09:42:02;;;;;;;;;;;;;;;16.38;70.96;102923.34;5016582;28;925;-63
2021/10/08 09:44:27;;;;;;;;;;;;;;;16.37;70.75;102918.91;5006532;28;1894;-63
2021/10/08 09:46:52;;;;;;;;;;;;;;;16.38;70.93;102918.84;4996411;28;2155;-63
2021/10/08 09:49:17;;;;;;;;;;;;;;;16.39;70.86;102925.09;4996378;28;1026;-63
2021/10/08 09:51:42;;;;;;;;;;;;;;;16.38;71.24;102923.34;4995681;28;994;-63
2021/10/08 09:54:07;;;;;;;;;;;;;;;16.37;70.99;102930.56;4996178;28;824;-63
2021/10/08 09:56:32;;;;;;;;;;;;;;;16.39;71.29;102927.78;4996311;28;1902;-63
2021/10/08 09:58:57;;;;;;;;;;;;;;;16.38;70.62;102926.03;4996085;28;883;-63
2021/10/08 10:01:22;;;;;;;;;;;;;;;16.39;71.01;102931.34;4996514;28;1010;-63
2021/10/08 10:03:47;;;;;;;;;;;;;;;16.39;70.93;102931.34;4996412;28;919;-63
2021/10/08 10:06:12;;;;;;;;;;;;;;;16.39;71.01;102925.97;4999736;28;1782;-63
2021/10/08 10:08:39;;;;;;;;;;;;;;;16.40;71.01;102926.81;5015357;28;1806;-63
2021/10/08 10:11:04;;;;;;;;;;;;;;;16.40;70.83;102925.00;5015860;28;1254;-63
2021/10/08 10:13:29;;;;;;;;;;;;;;;16.41;71.35;102933.94;5015511;28;867;-63
2021/10/08 10:15:54;;;;;;;;;;;;;;;16.40;70.79;102933.06;5015305;28;1902;-63
2021/10/08 10:18:19;;;;;;;;;;;;;;;16.42;70.94;102936.56;5015419;28;1010;-63
2021/10/08 10:20:44;;;;;;;;;;;;;;;16.41;70.75;102925.88;5015605;28;890;-63
2021/10/08 10:23:09;;;;;;;;;;;;;;;16.41;70.87;102928.56;5015740;28;1005;-63
2021/10/08 10:25:34;;;;;;;;;;;;;;;16.42;70.87;102928.47;5013315;28;1915;-63
2021/10/08 10:27:59;;;;;;;;;;;;;;;16.42;70.80;102925.78;4994528;28;934;-64
2021/10/08 10:30:24;;;;;;;;;;;;;;;16.43;71.05;102921.28;4995710;28;1057;-63
2021/10/08 10:32:50;;;;;;;;;;;;;;;16.42;70.83;102923.09;4995962;28;961;-63
2021/10/08 10:35:15;;;;;;;;;;;;;;;16.43;70.89;102927.53;4995780;28;1961;-63
2021/10/08 10:37:41;;;;;;;;;;;;;;;16.44;70.91;102925.72;4995737;28;1612;-63
2021/10/08 10:40:06;;;;;;;;;;;;;;;16.44;70.88;102923.00;4994976;28;1513;-63
2021/10/08 10:42:31;;;;;;;;;;;;;;;16.44;71.10;102933.78;4995579;28;1065;-63
2021/10/08 10:44:56;;;;;;;;;;;;;;;16.45;71.14;102914.00;4996004;28;978;-64
2021/10/08 10:47:30;;;;;;;;;;;;;;;16.45;70.95;102922.06;5014225;28;1875;-63
2021/10/08 10:49:57;;;;;;;;;;;;;;;16.44;70.96;102918.50;5015589;28;827;-63
2021/10/08 10:52:23;;;;;;;;;;;;;;;16.45;71.10;102920.25;5015184;28;890;-63
2021/10/08 10:54:49;;;;;;;;;;;;;;;16.46;71.28;102916.59;5015217;28;890;-63
2021/10/08 10:57:14;;;;;;;;;;;;;;;16.47;71.11;102917.47;5015058;28;1959;-63
2021/10/08 10:59:39;;;;;;;;;;;;;;;16.48;71.04;102922.72;5015069;28;1057;-63
2021/10/08 11:04:32;;;;;;;;;;;;;;;16.47;71.04;102907.56;5017881;28;871;-63
2021/10/08 11:06:57;;;;;;;;;;;;;;;16.48;70.90;102925.41;5001439;28;1908;-63
2021/10/08 11:09:23;;;;;;;;;;;;;;;16.48;70.96;102911.97;4998190;28;1013;-63
2021/10/08 11:11:48;;;;;;;;;;;;;;;16.50;70.82;102912.75;4999143;28;1120;-63
2021/10/08 11:14:13;;;;;;;;;;;;;;;16.50;70.74;102914.56;4999251;28;926;-63
2021/10/08 11:16:38;;;;;;;;;;;;;;;16.51;70.84;102905.53;4997877;28;2374;-63
2021/10/08 11:19:03;;;;;;;;;;;;;;;16.51;70.88;102902.84;4999016;28;1006;-63
2021/10/08 11:21:29;;;;;;;;;;;;;;;16.51;71.08;102902.84;4999403;28;909;-63
2021/10/08 11:23:54;;;;;;;;;;;;;;;16.53;71.06;102907.19;4999299;28;831;-63
2021/10/08 11:26:19;;;;;;;;;;;;;;;16.52;71.05;102899.22;4999607;28;1943;-64
2021/10/08 11:28:44;;;;;;;;;;;;;;;16.53;71.15;102895.56;4998807;28;1980;-63
2021/10/08 11:31:10;;;;;;;;;;;;;;;16.54;71.25;102894.59;4999091;28;1088;-63
2021/10/08 11:33:35;;;;;;;;;;;;;;;16.54;70.66;102895.47;4997849;28;1235;-63
2021/10/08 11:36:00;;;;;;;;;;;;;;;16.54;71.01;102897.28;4998699;28;1882;-63
2021/10/08 11:38:25;;;;;;;;;;;;;;;16.54;71.27;102889.22;4999002;28;995;-64
2021/10/08 11:40:50;;;;;;;;;;;;;;;16.55;70.98;102885.56;4998796;28;998;-64
2021/10/08 11:43:15;;;;;;;;;;;;;;;16.55;71.12;102883.75;4998652;28;867;-63
2021/10/08 11:48:31;;;;;;;;;;;;;;;16.56;70.98;102873.84;5014405;28;1271;-63
2021/10/08 11:51:03;;;;;;;;;;;;;;;16.55;70.98;102872.13;5018268;28;841;-63
2021/10/08 11:53:28;;;;;;;;;;;;;;;16.56;71.06;102868.47;5018175;28;1919;-63
2021/10/08 11:55:53;;;;;;;;;;;;;;;16.57;71.25;102872.91;5018255;28;1910;-63
2021/10/08 11:58:18;;;;;;;;;;;;;;;16.59;71.12;102873.69;5018123;28;1010;-63
2021/10/08 12:00:47;;;;;;;;;;;;;;;16.57;71.14;102867.53;5017937;28;910;-63
2021/10/08 12:03:12;;;;;;;;;;;;;;;16.58;71.32;102862.06;5018337;28;763;-63
2021/10/08 12:05:38;;;;;;;;;;;;;;;16.59;71.22;102854.84;5018234;28;851;-63
2021/10/08 12:08:03;;;;;;;;;;;;;;;16.60;71.16;102853.88;5005093;28;1986;-63
2021/10/08 12:10:28;;;;;;;;;;;;;;;16.60;71.24;102853.88;4998185;28;1351;-63
2021/10/08 12:12:53;;;;;;;;;;;;;;;16.62;71.07;102846.59;4998599;28;1118;-62
2021/10/08 12:15:18;;;;;;;;;;;;;;;16.61;70.94;102850.25;4996980;28;1906;-63
2021/10/08 12:17:43;;;;;;;;;;;;;;;16.63;71.10;102854.63;4998224;28;861;-63
2021/10/08 12:20:09;;;;;;;;;;;;;;;16.64;71.08;102844.72;4998653;28;1080;-63
2021/10/08 12:22:36;;;;;;;;;;;;;;;16.64;71.27;102844.72;4997856;28;977;-64
2021/10/08 12:25:01;;;;;;;;;;;;;;;16.64;71.09;102840.19;4998358;28;814;-64
2021/10/08 12:27:26;;;;;;;;;;;;;;;16.65;71.10;102833.00;4998146;28;1580;-63
2021/10/08 12:29:53;;;;;;;;;;;;;;;16.67;70.85;102839.13;4997853;28;1152;-63
2021/10/08 12:32:18;;;;;;;;;;;;;;;16.67;70.99;102828.34;5012943;28;2001;-63
2021/10/08 12:34:45;;;;;;;;;;;;;;;16.69;70.98;102826.44;5017143;28;1998;-63
2021/10/08 12:37:10;;;;;;;;;;;;;;;16.70;71.04;102833.56;5017236;28;1945;-64
2021/10/08 12:39:38;;;;;;;;;;;;;;;16.70;70.93;102830.00;5017417;28;914;-63
2021/10/08 12:42:03;;;;;;;;;;;;;;;16.72;71.32;102822.72;5018120;28;829;-63
2021/10/08 12:44:30;;;;;;;;;;;;;;;16.73;71.07;102828.00;5017308;28;1005;-63
2021/10/08 12:46:56;;;;;;;;;;;;;;;16.72;70.79;102826.28;5017837;28;844;-63